createdAt,value
2023-03-29T13:06:54.242Z,5.97
2023-03-29T13:11:57.206Z,5.18
2023-03-29T13:14:30.211Z,4.50
2023-03-29T13:17:42.837Z,4.63
2023-03-29T13:20:40.067Z,4.45
2023-03-29T13:23:32.429Z,4.97
2023-03-29T13:26:06.852Z,5.70
2023-03-29T13:29:07.533Z,5.25
2023-03-29T13:32:00.259Z,5.78
2023-03-29T13:34:50.226Z,5.57
2023-03-29T13:37:29.747Z,5.90
2023-03-29T13:39:58.032Z,5.18
2023-03-29T13:42:41.925Z,4.78
2023-03-29T13:45:39.319Z,5.05
2023-03-29T13:48:29.312Z,5.40
2023-03-29T13:50:58.834Z,6.22
2023-03-29T13:53:37.705Z,6.07
2023-03-29T13:56:11.369Z,5.97
2023-03-29T13:58:45.055Z,5.20
2023-03-29T14:01:19.993Z,6.03
2023-03-29T14:03:51.929Z,4.80
2023-03-29T14:06:34.583Z,5.45
2023-03-29T14:09:08.958Z,6.43
2023-03-29T14:11:36.895Z,5.88
2023-03-29T14:14:11.034Z,5.32
2023-03-29T14:16:40.398Z,7.03
2023-03-29T14:19:15.572Z,6.13
2023-03-29T14:21:44.044Z,5.80
2023-03-29T14:24:23.078Z,6.07
2023-03-29T14:26:50.115Z,5.53
2023-03-29T14:34:15.967Z,7.35
2023-03-29T14:36:49.041Z,6.63
2023-03-29T14:39:22.831Z,6.95
2023-03-29T14:41:53.033Z,6.50
2023-03-29T14:44:27.556Z,4.82
2023-03-29T14:46:56.197Z,5.78
2023-03-29T14:49:24.711Z,6.80
2023-03-29T14:51:53.152Z,6.82
2023-03-29T14:54:24.250Z,6.90
2023-03-29T14:56:52.570Z,6.65
2023-03-29T14:59:41.924Z,7.32
2023-03-29T15:02:30.137Z,7.90
2023-03-29T15:05:00.068Z,6.85
2023-03-29T15:07:28.479Z,5.93
2023-03-29T15:09:57.612Z,7.45
2023-03-29T15:12:25.131Z,6.82
2023-03-29T15:14:53.723Z,6.40
2023-03-29T15:17:51.197Z,5.90
2023-03-29T15:20:21.589Z,5.85
2023-03-29T15:23:20.802Z,6.60
2023-03-29T15:25:59.394Z,6.30
2023-03-29T15:28:32.964Z,6.70
2023-03-29T15:31:07.854Z,6.63
2023-03-29T15:33:38.087Z,7.40
2023-03-29T15:36:07.737Z,7.18
2023-03-29T15:38:44.041Z,6.50
2023-03-29T15:41:14.210Z,6.65
2023-03-29T15:43:42.129Z,7.60
2023-03-29T15:46:13.059Z,8.57
2023-03-29T15:48:40.914Z,6.72
2023-03-29T15:51:11.199Z,7.70
2023-03-29T15:53:38.924Z,7.75
2023-03-29T15:56:11.576Z,7.15
2023-03-29T15:58:39.024Z,7.72
2023-03-29T16:01:15.123Z,8.27
2023-03-29T16:03:42.288Z,8.35
2023-03-29T16:06:12.505Z,8.05
2023-03-29T16:08:40.978Z,8.18
2023-03-29T16:11:08.049Z,8.60
2023-03-29T16:13:35.643Z,8.25
2023-03-29T16:16:03.184Z,8.25
2023-03-29T16:18:30.477Z,9.48
2023-03-29T16:20:57.722Z,9.45
2023-03-29T16:23:25.035Z,8.70
2023-03-29T16:25:52.135Z,9.50
2023-03-29T16:28:19.130Z,9.73
2023-03-29T16:33:13.735Z,10.27
2023-03-29T16:35:41.125Z,10.82
2023-03-29T16:38:34.248Z,10.23
2023-03-29T16:41:02.688Z,11.13
2023-03-29T16:43:32.317Z,10.65
2023-03-29T16:45:59.560Z,9.80
2023-03-29T16:48:27.263Z,10.48
2023-03-29T16:50:54.696Z,9.55
2023-03-29T16:53:24.294Z,9.93
2023-03-29T16:55:52.756Z,10.35
2023-03-29T16:58:19.916Z,9.80
2023-03-29T17:00:48.409Z,9.75
2023-03-29T17:03:16.463Z,10.13
2023-03-29T17:05:54.661Z,9.50
2023-03-29T17:08:22.149Z,7.22
2023-03-29T17:10:55.668Z,9.48
2023-03-29T17:13:24.164Z,9.63
2023-03-29T17:15:52.814Z,10.73
2023-03-29T17:18:27.506Z,7.93
2023-03-29T17:20:59.252Z,10.05
2023-03-29T17:23:26.557Z,10.82
2023-03-29T17:25:57.161Z,9.90
2023-03-29T17:28:24.818Z,10.88
2023-03-29T17:30:52.380Z,10.00
2023-03-29T17:33:22.808Z,10.05
2023-03-29T17:35:50.582Z,10.27
2023-03-29T17:38:17.748Z,11.07
2023-03-29T17:40:51.608Z,10.75
2023-03-29T17:43:18.722Z,6.65
2023-03-29T17:45:46.565Z,11.27
2023-03-29T17:48:13.669Z,10.82
2023-03-29T17:50:40.751Z,9.80
2023-03-29T17:53:08.122Z,10.43
2023-03-29T17:58:17.965Z,9.93
2023-03-29T18:00:45.300Z,11.25
2023-03-29T18:03:12.714Z,10.77
2023-03-29T18:05:41.401Z,10.88
2023-03-29T18:18:59.067Z,10.80
2023-03-29T18:21:28.501Z,12.00
2023-03-29T18:23:57.017Z,12.75
2023-03-29T18:26:25.289Z,10.65
2023-03-29T18:28:52.746Z,13.27
2023-03-29T18:31:20.298Z,12.82
2023-03-29T18:33:47.777Z,12.80
2023-03-29T18:36:15.325Z,11.15
2023-03-29T18:38:43.944Z,12.25
2023-03-29T18:41:13.922Z,13.70
2023-03-29T18:43:41.608Z,12.13
2023-03-29T18:46:09.152Z,11.27
2023-03-29T18:48:39.080Z,11.90
2023-03-29T18:51:08.046Z,11.98
2023-03-29T18:53:36.200Z,12.15
2023-03-29T18:56:04.551Z,12.02
2023-03-29T18:58:32.241Z,13.13
2023-03-29T19:01:04.333Z,13.63
2023-03-29T19:03:32.893Z,13.10
2023-03-29T19:06:02.085Z,11.50
2023-03-29T19:08:29.608Z,12.88
2023-03-29T19:11:05.967Z,11.40
2023-03-29T19:13:33.109Z,13.73
2023-03-29T19:16:00.557Z,15.18
2023-03-29T19:18:28.321Z,13.82
2023-03-29T19:20:55.578Z,15.77
2023-03-29T19:23:25.357Z,13.55
2023-03-29T19:25:58.464Z,14.52
2023-03-29T19:28:26.633Z,15.40
2023-03-29T19:30:54.812Z,16.38
2023-03-29T19:33:23.052Z,16.38
2023-03-29T19:35:52.276Z,15.32
2023-03-29T19:38:19.963Z,15.95
2023-03-29T19:40:51.604Z,14.27
2023-03-29T19:43:21.329Z,16.48
2023-03-29T19:45:50.414Z,14.60
2023-03-29T19:48:23.106Z,15.80
2023-03-29T19:50:51.532Z,16.15
2023-03-29T19:53:18.563Z,14.60
2023-03-29T19:58:13.534Z,15.43
2023-03-29T20:00:41.968Z,15.40
2023-03-29T20:03:14.070Z,14.40
2023-03-29T20:05:41.336Z,15.20
2023-03-29T20:08:08.705Z,13.85
2023-03-29T20:10:36.545Z,15.00
2023-03-29T20:13:05.896Z,14.73
2023-03-29T20:15:33.012Z,15.35
2023-03-29T20:20:28.532Z,16.63
2023-03-29T20:23:04.667Z,17.02
2023-03-29T20:25:35.821Z,15.38
2023-03-29T20:28:04.045Z,16.48
2023-03-29T20:30:31.188Z,17.00
2023-03-29T20:32:58.239Z,16.40
2023-03-29T20:35:25.802Z,16.98
2023-03-29T20:37:52.990Z,17.42
2023-03-29T20:40:21.012Z,17.15
2023-03-29T20:42:49.069Z,17.95
2023-03-29T20:45:19.689Z,16.60
2023-03-29T20:47:56.207Z,15.70
2023-03-29T20:50:26.560Z,15.70
2023-03-29T20:52:54.640Z,17.63
2023-03-29T20:55:23.084Z,18.83
2023-03-29T20:57:59.728Z,18.40
2023-03-29T21:00:28.935Z,18.37
2023-03-29T21:02:58.878Z,18.48
2023-03-29T21:05:31.133Z,18.20
2023-03-29T21:07:58.473Z,16.73
2023-03-29T21:10:27.670Z,18.10
2023-03-29T21:12:54.747Z,17.73
2023-03-29T21:15:21.878Z,18.25
2023-03-29T21:17:48.902Z,20.38
2023-03-29T21:22:43.409Z,16.58
2023-03-29T21:25:12.819Z,20.05
2023-03-29T21:27:39.837Z,18.73
2023-03-29T21:35:02.557Z,16.27
2023-03-29T21:37:30.110Z,21.63
2023-03-29T21:42:24.025Z,21.75
2023-03-29T21:44:51.302Z,19.83
2023-03-29T21:47:18.647Z,20.85
2023-03-29T21:49:45.584Z,19.55
2023-03-29T21:54:39.580Z,21.00
2023-03-29T21:59:33.813Z,18.65
2023-03-29T22:02:01.170Z,20.33
2023-03-29T22:04:36.665Z,22.98
2023-03-29T22:07:06.356Z,23.42
2023-03-29T22:09:35.321Z,23.35
2023-03-29T22:12:03.832Z,23.58
2023-03-29T22:14:35.273Z,22.25
2023-03-29T22:17:07.018Z,25.05
2023-03-29T22:19:44.399Z,23.73
2023-03-29T22:22:14.353Z,22.73
2023-03-29T22:24:42.424Z,27.13
2023-03-29T22:27:11.269Z,30.30
2023-03-29T22:29:38.273Z,25.00
2023-03-29T22:34:33.507Z,27.08
2023-03-29T22:37:00.644Z,27.17
2023-03-29T22:39:27.652Z,22.92
2023-03-29T22:44:21.710Z,25.13
2023-03-29T22:46:48.732Z,24.88
2023-03-29T22:51:42.567Z,20.25
2023-03-29T22:56:36.502Z,20.48
2023-03-29T22:59:03.685Z,21.83
2023-03-29T23:01:30.895Z,18.70
2023-03-29T23:03:57.986Z,20.05
2023-03-29T23:06:25.103Z,18.77
2023-03-29T23:11:19.087Z,21.55
2023-03-29T23:13:49.026Z,15.48
2023-03-29T23:16:16.589Z,16.90
2023-03-29T23:18:43.763Z,15.02
2023-03-29T23:23:38.485Z,13.88
2023-03-29T23:26:08.600Z,13.95
2023-03-29T23:28:35.793Z,14.40
2023-03-29T23:31:11.743Z,15.70
2023-03-29T23:33:42.943Z,14.20
2023-03-29T23:36:18.115Z,15.40
2023-03-29T23:38:46.420Z,17.48
2023-03-29T23:41:13.973Z,16.35
2023-03-29T23:43:42.645Z,17.15
2023-03-29T23:46:12.585Z,16.15
2023-03-29T23:48:39.974Z,18.55
2023-03-29T23:51:08.253Z,17.35
2023-03-29T23:53:35.326Z,19.83
2023-03-29T23:56:05.150Z,20.80
2023-03-29T23:58:37.563Z,20.95
